createdAt,value
2019-03-28T00:01:44.789Z,8.50
2019-03-28T00:04:12.887Z,8.50
2019-03-28T00:06:40.956Z,8.50
2019-03-28T00:09:09.023Z,8.50
2019-03-28T00:11:37.161Z,8.50
2019-03-28T00:14:05.560Z,8.50
2019-03-28T00:16:35.492Z,8.50
2019-03-28T00:19:03.600Z,8.40
2019-03-28T00:21:31.724Z,8.40
2019-03-28T00:24:04.660Z,8.50
2019-03-28T00:26:32.787Z,8.50
2019-03-28T00:29:00.878Z,8.50
2019-03-28T00:31:29.027Z,8.50
2019-03-28T00:33:57.361Z,8.50
2019-03-28T00:36:25.475Z,8.50
2019-03-28T00:38:53.558Z,8.50
2019-03-28T00:41:21.708Z,8.50
2019-03-28T00:43:49.815Z,8.50
2019-03-28T00:46:17.875Z,8.50
2019-03-28T00:48:46.029Z,8.50
2019-03-28T00:51:14.118Z,8.50
2019-03-28T00:53:42.242Z,8.40
2019-03-28T00:56:10.369Z,8.40
2019-03-28T00:58:38.450Z,8.40
2019-03-28T01:01:06.496Z,8.40
2019-03-28T01:03:34.583Z,8.40
2019-03-28T01:06:02.671Z,8.40
2019-03-28T01:08:30.727Z,8.40
2019-03-28T01:10:58.840Z,8.50
2019-03-28T01:13:26.961Z,8.40
2019-03-28T01:15:55.066Z,8.50
2019-03-28T01:18:23.427Z,8.40
2019-03-28T01:20:51.520Z,8.40
2019-03-28T01:23:19.566Z,8.40
2019-03-28T01:25:47.662Z,8.40
2019-03-28T01:28:16.218Z,8.40
2019-03-28T01:30:44.513Z,8.40
2019-03-28T01:33:12.571Z,8.40
2019-03-28T01:35:40.663Z,8.40
2019-03-28T01:38:08.702Z,8.40
2019-03-28T01:40:36.849Z,8.40
2019-03-28T01:43:06.339Z,8.40
2019-03-28T01:45:34.816Z,8.40
2019-03-28T01:48:02.963Z,8.40
2019-03-28T01:50:31.160Z,8.40
2019-03-28T01:52:59.311Z,8.40
2019-03-28T01:55:27.411Z,8.40
2019-03-28T01:57:55.544Z,8.40
2019-03-28T02:00:23.650Z,8.40
2019-03-28T02:02:51.800Z,8.40
2019-03-28T02:05:19.882Z,8.40
2019-03-28T02:07:47.938Z,8.40
2019-03-28T02:10:16.028Z,8.40
2019-03-28T02:12:44.377Z,8.40
2019-03-28T02:15:12.708Z,8.40
2019-03-28T02:17:40.843Z,8.40
2019-03-28T02:20:09.244Z,8.40
2019-03-28T02:22:37.531Z,8.40
2019-03-28T02:25:05.904Z,8.40
2019-03-28T02:27:34.051Z,8.40
2019-03-28T02:30:02.228Z,8.40
2019-03-28T02:32:30.306Z,8.40
2019-03-28T02:34:58.382Z,8.40
2019-03-28T02:37:26.443Z,8.40
2019-03-28T02:39:54.514Z,8.40
2019-03-28T02:42:22.610Z,8.40
2019-03-28T02:44:50.670Z,8.40
2019-03-28T02:47:18.827Z,8.30
2019-03-28T02:49:47.772Z,8.30
2019-03-28T02:52:15.916Z,8.30
2019-03-28T02:54:43.959Z,8.30
2019-03-28T02:57:12.088Z,8.30
2019-03-28T02:59:40.215Z,8.30
2019-03-28T03:02:08.330Z,8.30
2019-03-28T03:04:36.675Z,8.30
2019-03-28T03:07:05.119Z,8.30
2019-03-28T03:09:33.162Z,8.30
2019-03-28T03:12:01.386Z,8.30
2019-03-28T03:14:29.685Z,8.30
2019-03-28T03:16:57.749Z,8.30
2019-03-28T03:19:26.010Z,8.30
2019-03-28T03:21:54.232Z,8.30
2019-03-28T03:24:22.392Z,8.30
2019-03-28T03:26:50.466Z,8.30
2019-03-28T03:29:18.527Z,8.30
2019-03-28T03:31:46.649Z,8.30
2019-03-28T03:34:14.860Z,8.30
2019-03-28T03:36:43.074Z,8.30
2019-03-28T03:39:11.117Z,8.30
2019-03-28T03:41:39.280Z,8.30
2019-03-28T03:44:07.386Z,8.30
2019-03-28T03:46:35.474Z,8.30
2019-03-28T03:49:04.768Z,8.30
2019-03-28T03:51:33.062Z,8.30
2019-03-28T03:54:01.241Z,8.30
2019-03-28T03:56:29.379Z,8.30
2019-03-28T03:58:57.443Z,8.30
2019-03-28T04:01:25.508Z,8.40
2019-03-28T04:03:53.579Z,8.30
2019-03-28T04:06:21.667Z,8.30
2019-03-28T04:08:49.727Z,8.30
2019-03-28T04:11:17.823Z,8.30
2019-03-28T04:13:45.969Z,8.30
2019-03-28T04:16:14.049Z,8.30
2019-03-28T04:18:42.427Z,8.30
2019-03-28T04:21:10.465Z,8.30
2019-03-28T04:23:38.591Z,8.40
2019-03-28T04:26:06.748Z,8.40
2019-03-28T04:28:35.140Z,8.40
2019-03-28T04:31:03.195Z,8.40
2019-03-28T04:33:31.248Z,8.40
2019-03-28T04:35:59.337Z,8.30
2019-03-28T04:38:27.436Z,8.40
2019-03-28T04:40:55.482Z,8.40
2019-03-28T04:43:23.889Z,8.40
2019-03-28T04:45:52.036Z,8.40
2019-03-28T04:48:20.127Z,8.40
2019-03-28T04:50:48.888Z,8.40
2019-03-28T04:53:17.094Z,8.40
2019-03-28T04:55:45.243Z,8.40
2019-03-28T04:58:13.326Z,8.40
2019-03-28T05:00:41.695Z,8.40
2019-03-28T05:03:10.815Z,8.40
2019-03-28T05:05:38.866Z,8.40
2019-03-28T05:08:06.987Z,8.40
2019-03-28T05:10:35.111Z,8.40
2019-03-28T05:13:03.226Z,8.40
2019-03-28T05:15:32.088Z,8.40
2019-03-28T05:18:00.306Z,8.40
2019-03-28T05:20:28.342Z,8.40
2019-03-28T05:22:56.517Z,8.40
2019-03-28T05:25:24.671Z,8.40
2019-03-28T05:27:53.070Z,8.40
2019-03-28T05:30:21.127Z,8.40
2019-03-28T05:32:49.506Z,8.30
2019-03-28T05:35:17.570Z,8.30
2019-03-28T05:37:45.659Z,8.30
2019-03-28T05:40:13.839Z,8.30
2019-03-28T05:42:41.906Z,8.30
2019-03-28T05:45:10.142Z,8.30
2019-03-28T05:47:38.243Z,8.30
2019-03-28T05:50:06.378Z,8.40
2019-03-28T05:52:34.491Z,8.40
2019-03-28T05:55:05.251Z,8.40
2019-03-28T05:57:32.370Z,8.40
2019-03-28T06:00:00.485Z,8.40
2019-03-28T06:02:28.866Z,8.40
2019-03-28T06:04:56.927Z,8.40
2019-03-28T06:07:25.076Z,8.40
2019-03-28T06:09:53.171Z,8.40
2019-03-28T06:12:21.315Z,8.40
2019-03-28T06:14:49.411Z,8.40
2019-03-28T06:17:17.767Z,8.40
2019-03-28T06:19:46.067Z,8.50
2019-03-28T06:22:14.123Z,8.50
2019-03-28T06:24:42.207Z,8.60
2019-03-28T06:27:10.275Z,8.60
2019-03-28T06:29:38.678Z,8.60
2019-03-28T06:32:06.822Z,8.60
2019-03-28T06:34:35.300Z,8.60
2019-03-28T06:37:03.664Z,8.60
2019-03-28T06:39:31.723Z,8.60
2019-03-28T06:42:00.027Z,8.60
2019-03-28T06:44:28.114Z,8.70
2019-03-28T06:46:56.183Z,8.70
2019-03-28T06:49:24.266Z,8.60
2019-03-28T06:51:52.328Z,8.60
2019-03-28T06:54:20.412Z,8.60
2019-03-28T06:56:48.566Z,8.70
2019-03-28T06:59:16.627Z,8.70
2019-03-28T07:01:44.679Z,8.70
2019-03-28T07:04:12.808Z,8.70
2019-03-28T07:06:40.854Z,8.70
2019-03-28T07:09:09.251Z,8.70
2019-03-28T07:11:37.335Z,8.70
2019-03-28T07:14:05.479Z,8.70
2019-03-28T07:16:33.566Z,8.70
2019-03-28T07:19:01.622Z,8.70
2019-03-28T07:21:29.702Z,8.70
2019-03-28T07:23:57.769Z,8.70
2019-03-28T07:26:26.307Z,8.70
2019-03-28T07:28:54.524Z,8.80
2019-03-28T07:31:22.632Z,8.80
2019-03-28T07:33:50.771Z,8.80
2019-03-28T07:36:18.863Z,8.80
2019-03-28T07:38:46.924Z,8.80
2019-03-28T07:41:16.511Z,8.80
2019-03-28T07:43:44.803Z,8.80
2019-03-28T07:46:12.892Z,8.80
2019-03-28T07:48:41.005Z,8.80
2019-03-28T07:51:09.256Z,8.80
2019-03-28T07:53:37.420Z,8.80
2019-03-28T07:56:05.490Z,8.90
2019-03-28T07:58:33.555Z,8.90
2019-03-28T08:01:01.652Z,9.00
2019-03-28T08:03:29.912Z,9.00
2019-03-28T08:05:57.990Z,9.10
2019-03-28T08:08:38.249Z,9.10
2019-03-28T08:10:55.976Z,9.20
2019-03-28T08:13:24.640Z,9.20
2019-03-28T08:15:52.763Z,9.20
2019-03-28T08:18:23.653Z,9.20
2019-03-28T08:20:50.707Z,9.30
2019-03-28T08:23:18.750Z,9.30
2019-03-28T08:25:47.154Z,9.30
2019-03-28T08:28:15.283Z,9.30
2019-03-28T08:30:45.357Z,9.40
2019-03-28T08:33:13.223Z,9.40
2019-03-28T08:35:41.288Z,9.40
2019-03-28T08:38:10.224Z,9.40
2019-03-28T08:40:40.046Z,9.40
2019-03-28T08:43:08.626Z,9.30
2019-03-28T08:45:36.822Z,9.40
2019-03-28T08:48:05.320Z,9.50
2019-03-28T08:50:33.403Z,9.60
2019-03-28T08:53:01.498Z,9.70
2019-03-28T08:55:29.701Z,9.70
2019-03-28T08:57:57.983Z,9.80
2019-03-28T09:00:33.154Z,9.90
2019-03-28T09:02:55.895Z,9.90
2019-03-28T09:05:23.995Z,9.80
2019-03-28T09:07:52.087Z,9.80
2019-03-28T09:10:20.226Z,9.90
2019-03-28T09:12:48.319Z,10.00
2019-03-28T09:15:16.380Z,10.10
2019-03-28T09:17:44.477Z,10.20
2019-03-28T09:20:12.635Z,10.30
2019-03-28T09:22:40.708Z,10.20
2019-03-28T09:25:08.920Z,10.20
2019-03-28T09:27:37.068Z,10.10
2019-03-28T09:30:06.083Z,10.10
2019-03-28T09:32:34.147Z,10.10
2019-03-28T09:35:02.200Z,10.00
2019-03-28T09:37:30.295Z,10.00
2019-03-28T09:39:58.331Z,10.00
2019-03-28T09:42:26.416Z,10.00
2019-03-28T09:44:54.467Z,10.00
2019-03-28T09:47:22.566Z,10.00
2019-03-28T09:49:50.632Z,10.00
2019-03-28T09:52:18.703Z,10.00
2019-03-28T09:54:46.979Z,9.90
2019-03-28T09:57:15.052Z,9.80
2019-03-28T09:59:43.107Z,9.90
2019-03-28T10:02:11.168Z,9.90
2019-03-28T10:04:39.267Z,10.00
2019-03-28T10:07:07.327Z,10.10
2019-03-28T10:09:36.090Z,10.10
2019-03-28T10:12:04.373Z,10.10
2019-03-28T10:14:32.483Z,10.10
2019-03-28T10:17:01.419Z,10.00
2019-03-28T10:19:29.787Z,10.00
2019-03-28T10:21:57.908Z,10.00
2019-03-28T10:24:26.004Z,10.00
2019-03-28T10:26:54.151Z,10.00
2019-03-28T10:29:22.223Z,10.00
2019-03-28T10:31:50.259Z,10.10
2019-03-28T10:34:18.511Z,10.10
2019-03-28T10:36:46.652Z,10.10
2019-03-28T10:39:14.740Z,10.10
2019-03-28T10:41:42.791Z,10.10
2019-03-28T10:44:10.894Z,10.10
2019-03-28T10:46:39.034Z,10.20
2019-03-28T10:49:07.143Z,10.20
2019-03-28T10:51:35.471Z,10.10
2019-03-28T10:54:03.866Z,10.10
2019-03-28T10:56:31.925Z,10.10
2019-03-28T10:58:59.997Z,10.20
2019-03-28T11:01:47.024Z,10.10
2019-03-28T11:03:58.008Z,10.10
2019-03-28T11:06:26.045Z,10.10
2019-03-28T11:08:54.171Z,10.10
2019-03-28T11:11:22.568Z,10.10
2019-03-28T11:13:50.847Z,10.20
2019-03-28T11:16:18.988Z,10.20
2019-03-28T11:18:47.050Z,10.30
2019-03-28T11:21:15.095Z,10.30
2019-03-28T11:23:43.151Z,10.20
2019-03-28T11:26:11.259Z,10.30
2019-03-28T11:28:39.362Z,10.40
2019-03-28T11:31:07.539Z,10.40
2019-03-28T11:33:35.695Z,10.40
2019-03-28T11:36:03.876Z,10.30
2019-03-28T11:38:31.923Z,10.30
2019-03-28T11:40:59.999Z,10.30
2019-03-28T11:43:28.144Z,10.40
2019-03-28T11:45:56.270Z,10.40
2019-03-28T11:48:24.337Z,10.50
2019-03-28T11:50:52.422Z,10.60
2019-03-28T11:53:20.612Z,10.70
2019-03-28T11:55:49.056Z,10.70
2019-03-28T11:58:17.332Z,10.80
2019-03-28T12:00:45.419Z,10.90
2019-03-28T12:03:13.470Z,10.90
2019-03-28T12:05:41.559Z,11.10
2019-03-28T12:08:09.613Z,11.10
2019-03-28T12:10:38.786Z,11.20
2019-03-28T12:13:07.120Z,11.20
2019-03-28T12:15:35.309Z,11.30
2019-03-28T12:18:03.520Z,11.20
2019-03-28T12:20:32.023Z,11.30
2019-03-28T12:23:00.180Z,11.30
2019-03-28T12:25:28.609Z,11.30
2019-03-28T12:27:56.668Z,11.30
2019-03-28T12:30:24.825Z,11.20
2019-03-28T12:32:52.875Z,11.00
2019-03-28T12:35:20.991Z,10.90
2019-03-28T12:37:49.139Z,10.70
2019-03-28T12:40:17.266Z,10.70
2019-03-28T12:42:45.334Z,10.70
2019-03-28T12:45:13.643Z,10.70
2019-03-28T12:47:43.122Z,10.70
2019-03-28T12:50:11.767Z,10.60
2019-03-28T12:52:39.860Z,10.60
2019-03-28T12:55:08.287Z,10.50
2019-03-28T12:57:36.356Z,10.50
2019-03-28T13:00:06.765Z,10.40
2019-03-28T13:02:35.016Z,10.40
2019-03-28T13:05:03.245Z,10.40
2019-03-28T13:07:31.315Z,10.40
2019-03-28T13:09:59.366Z,10.50
2019-03-28T13:12:27.506Z,10.50
2019-03-28T13:14:55.839Z,10.60
2019-03-28T13:17:23.903Z,10.50
2019-03-28T13:19:51.956Z,10.50
2019-03-28T13:22:20.092Z,10.70
2019-03-28T13:24:48.144Z,10.70
2019-03-28T13:27:16.234Z,10.70
2019-03-28T13:29:44.296Z,10.60
2019-03-28T13:32:12.367Z,10.50
2019-03-28T13:34:40.431Z,10.50
2019-03-28T13:37:08.501Z,10.50
2019-03-28T13:39:36.551Z,10.40
2019-03-28T13:42:04.614Z,10.50
2019-03-28T13:44:32.666Z,10.50
2019-03-28T13:47:00.741Z,10.50
2019-03-28T13:49:28.863Z,10.50
2019-03-28T13:51:56.973Z,10.60
2019-03-28T13:54:25.135Z,10.60
2019-03-28T13:56:53.208Z,10.70
2019-03-28T13:59:21.251Z,10.80
2019-03-28T14:01:49.371Z,11.00
2019-03-28T14:04:17.506Z,10.90
2019-03-28T14:06:45.638Z,10.90
2019-03-28T14:09:13.751Z,11.00
2019-03-28T14:11:41.803Z,11.00
2019-03-28T14:14:09.917Z,10.90
2019-03-28T14:16:37.967Z,10.90
2019-03-28T14:19:06.075Z,10.80
2019-03-28T14:21:34.214Z,10.70
2019-03-28T14:24:02.309Z,10.70
2019-03-28T14:26:30.859Z,10.80
2019-03-28T14:28:58.976Z,10.80
2019-03-28T14:31:27.120Z,10.80
2019-03-28T14:33:55.215Z,10.80
2019-03-28T14:36:25.194Z,10.80
2019-03-28T14:38:53.203Z,10.70
2019-03-28T14:41:22.521Z,10.70
2019-03-28T14:43:50.820Z,10.70
2019-03-28T14:46:18.927Z,10.60
2019-03-28T14:48:47.067Z,10.60
2019-03-28T14:51:15.675Z,10.50
2019-03-28T14:53:44.208Z,10.50
2019-03-28T14:56:12.527Z,10.60
2019-03-28T14:58:41.571Z,10.60
2019-03-28T15:01:09.621Z,10.60
2019-03-28T15:03:37.824Z,10.70
2019-03-28T15:06:05.863Z,10.70
2019-03-28T15:08:33.964Z,10.70
2019-03-28T15:11:02.120Z,10.70
2019-03-28T15:13:30.203Z,10.80
2019-03-28T15:15:58.359Z,10.90
2019-03-28T15:18:26.452Z,10.90
2019-03-28T15:20:54.738Z,11.00
2019-03-28T15:23:22.807Z,11.10
2019-03-28T15:25:50.851Z,11.00
2019-03-28T15:28:18.921Z,11.00
2019-03-28T15:30:46.991Z,10.90
2019-03-28T15:33:15.095Z,10.80
2019-03-28T15:35:43.240Z,10.70
2019-03-28T15:38:11.338Z,10.60
2019-03-28T15:40:39.391Z,10.50
2019-03-28T15:43:07.454Z,10.40
2019-03-28T15:45:35.558Z,10.30
2019-03-28T15:48:03.711Z,10.30
2019-03-28T15:50:31.908Z,10.20
2019-03-28T15:52:59.952Z,10.20
2019-03-28T15:55:28.040Z,10.10
2019-03-28T15:57:56.203Z,10.00
2019-03-28T16:00:24.289Z,10.00
2019-03-28T16:02:52.449Z,10.00
2019-03-28T16:05:20.531Z,9.90
2019-03-28T16:07:48.591Z,10.00
2019-03-28T16:10:17.011Z,10.00
2019-03-28T16:12:45.151Z,10.00
2019-03-28T16:15:14.294Z,10.00
2019-03-28T16:17:42.339Z,10.00
2019-03-28T16:20:11.345Z,9.90
2019-03-28T16:22:39.477Z,10.00
2019-03-28T16:25:07.656Z,10.00
2019-03-28T16:27:35.751Z,10.10
2019-03-28T16:30:04.676Z,10.10
2019-03-28T16:32:32.812Z,10.10
2019-03-28T16:35:00.991Z,10.10
2019-03-28T16:37:29.139Z,10.10
2019-03-28T16:39:57.236Z,10.10
2019-03-28T16:42:25.287Z,10.00
2019-03-28T16:44:53.374Z,10.00
2019-03-28T16:47:21.411Z,10.00
2019-03-28T16:49:49.524Z,10.00
2019-03-28T16:52:18.119Z,10.00
2019-03-28T16:54:46.378Z,10.00
2019-03-28T16:57:14.434Z,10.00
2019-03-28T16:59:42.524Z,9.90
2019-03-28T17:02:10.576Z,9.90
2019-03-28T17:04:38.687Z,9.90
2019-03-28T17:07:07.283Z,9.80
2019-03-28T17:09:37.721Z,9.80
2019-03-28T17:12:06.808Z,9.80
2019-03-28T17:14:34.960Z,9.80
2019-03-28T17:17:03.103Z,9.80
2019-03-28T17:19:31.197Z,9.90
2019-03-28T17:21:59.251Z,9.90
2019-03-28T17:24:28.028Z,9.90
2019-03-28T17:26:56.251Z,9.90
2019-03-28T17:29:24.287Z,9.90
2019-03-28T17:31:52.375Z,9.90
2019-03-28T17:34:33.647Z,9.90
2019-03-28T17:36:50.472Z,9.80
2019-03-28T17:39:18.620Z,9.80
2019-03-28T17:41:46.725Z,9.80
2019-03-28T17:44:14.871Z,9.80
2019-03-28T17:46:42.935Z,9.80
2019-03-28T17:49:11.015Z,9.80
2019-03-28T17:51:40.575Z,9.80
2019-03-28T17:54:08.803Z,9.70
2019-03-28T17:56:36.883Z,9.80
2019-03-28T17:59:04.940Z,9.70
2019-03-28T18:01:33.040Z,9.80
2019-03-28T18:04:01.179Z,9.80
2019-03-28T18:06:29.287Z,9.80
2019-03-28T18:08:57.333Z,9.80
2019-03-28T18:11:26.511Z,9.80
2019-03-28T18:13:54.595Z,9.80
2019-03-28T18:16:22.694Z,9.80
2019-03-28T18:18:50.843Z,9.80
2019-03-28T18:21:18.939Z,9.70
2019-03-28T18:23:46.988Z,9.80
2019-03-28T18:26:15.199Z,9.80
2019-03-28T18:28:43.353Z,9.80
2019-03-28T18:31:11.764Z,9.80
2019-03-28T18:33:40.106Z,9.80
2019-03-28T18:36:08.322Z,9.80
2019-03-28T18:38:36.908Z,9.80
2019-03-28T18:41:05.869Z,9.80
2019-03-28T18:43:33.929Z,9.80
2019-03-28T18:46:02.008Z,9.80
2019-03-28T18:48:36.092Z,9.80
2019-03-28T18:50:59.891Z,9.80
2019-03-28T18:53:28.003Z,9.80
2019-03-28T18:55:56.331Z,9.70
2019-03-28T18:58:24.425Z,9.70
2019-03-28T19:00:52.479Z,9.70
2019-03-28T19:03:20.570Z,9.70
2019-03-28T19:05:48.826Z,9.70
2019-03-28T19:08:18.941Z,9.70
2019-03-28T19:10:50.616Z,9.70
2019-03-28T19:13:17.156Z,9.70
2019-03-28T19:15:45.216Z,9.70
2019-03-28T19:18:13.638Z,9.70
2019-03-28T19:20:43.010Z,9.60
2019-03-28T19:23:11.231Z,9.60
2019-03-28T19:25:39.277Z,9.60
2019-03-28T19:28:07.957Z,9.50
2019-03-28T19:30:36.495Z,9.50
2019-03-28T19:33:06.867Z,9.50
2019-03-28T19:35:35.189Z,9.50
2019-03-28T19:38:03.463Z,9.50
2019-03-28T19:40:32.274Z,9.50
2019-03-28T19:43:00.984Z,9.50
2019-03-28T19:45:35.708Z,9.50
2019-03-28T19:48:04.170Z,9.50
2019-03-28T19:50:32.361Z,9.40
2019-03-28T19:53:00.556Z,9.40
2019-03-28T19:55:28.843Z,9.50
2019-03-28T19:57:57.148Z,9.40
2019-03-28T20:00:25.365Z,9.50
2019-03-28T20:02:53.462Z,9.50
2019-03-28T20:05:21.638Z,9.50
2019-03-28T20:07:50.138Z,9.50
2019-03-28T20:10:18.717Z,9.50
2019-03-28T20:12:47.079Z,9.50
2019-03-28T20:15:15.314Z,9.50
2019-03-28T20:17:43.858Z,9.50
2019-03-28T20:20:12.176Z,9.50
2019-03-28T20:22:40.278Z,9.40
2019-03-28T20:25:08.426Z,9.40
2019-03-28T20:27:36.851Z,9.50
2019-03-28T20:30:05.589Z,9.40
2019-03-28T20:32:34.004Z,9.40
2019-03-28T20:35:02.147Z,9.40
2019-03-28T20:37:30.262Z,9.40
2019-03-28T20:39:58.779Z,9.40
2019-03-28T20:42:26.987Z,9.40
2019-03-28T20:44:55.088Z,9.40
2019-03-28T20:47:23.447Z,9.40
2019-03-28T20:49:51.560Z,9.50
2019-03-28T20:52:19.703Z,9.50
2019-03-28T20:54:47.787Z,9.40
2019-03-28T20:57:15.847Z,9.50
2019-03-28T20:59:43.927Z,9.50
2019-03-28T21:02:11.990Z,9.50
2019-03-28T21:04:40.068Z,9.50
2019-03-28T21:07:08.132Z,9.50
2019-03-28T21:09:36.227Z,9.50
2019-03-28T21:12:04.375Z,9.50
2019-03-28T21:14:32.562Z,9.50
2019-03-28T21:17:00.626Z,9.50
2019-03-28T21:19:28.707Z,9.50
2019-03-28T21:21:56.756Z,9.50
2019-03-28T21:24:24.859Z,9.50
2019-03-28T21:26:53.313Z,9.50
2019-03-28T21:29:21.410Z,9.50
2019-03-28T21:31:50.441Z,9.50
2019-03-28T21:34:19.370Z,9.50
2019-03-28T21:36:47.447Z,9.50
2019-03-28T21:39:15.538Z,9.50
2019-03-28T21:41:43.596Z,9.50
2019-03-28T21:44:11.688Z,9.50
2019-03-28T21:46:39.734Z,9.50
2019-03-28T21:49:08.840Z,9.50
2019-03-28T21:51:37.322Z,9.50
2019-03-28T21:54:05.705Z,9.50
2019-03-28T21:56:33.780Z,9.50
2019-03-28T21:59:01.824Z,9.50
2019-03-28T22:01:29.952Z,9.50
2019-03-28T22:03:58.082Z,9.50
2019-03-28T22:06:26.172Z,9.50
2019-03-28T22:08:54.228Z,9.50
2019-03-28T22:11:22.320Z,9.50
2019-03-28T22:13:50.366Z,9.50
2019-03-28T22:16:18.467Z,9.50
2019-03-28T22:18:46.668Z,9.50
2019-03-28T22:21:14.812Z,9.40
2019-03-28T22:23:42.859Z,9.40
2019-03-28T22:26:11.240Z,9.40
2019-03-28T22:28:39.345Z,9.40
2019-03-28T22:31:07.507Z,9.40
2019-03-28T22:33:35.560Z,9.40
2019-03-28T22:36:04.183Z,9.50
2019-03-28T22:38:32.375Z,9.50
2019-03-28T22:41:00.526Z,9.50
2019-03-28T22:43:28.570Z,9.50
2019-03-28T22:45:56.670Z,9.50
2019-03-28T22:48:24.715Z,9.40
2019-03-28T22:50:52.808Z,9.50
2019-03-28T22:53:20.977Z,9.50
2019-03-28T22:55:49.059Z,9.50
2019-03-28T22:58:17.119Z,9.50
2019-03-28T23:00:46.084Z,9.50
2019-03-28T23:03:14.598Z,9.50
2019-03-28T23:05:42.987Z,9.50
2019-03-28T23:08:11.139Z,9.50
2019-03-28T23:10:39.213Z,9.50
2019-03-28T23:13:07.314Z,9.50
2019-03-28T23:15:35.472Z,9.50
2019-03-28T23:18:03.548Z,9.50
2019-03-28T23:20:33.757Z,9.50
2019-03-28T23:23:01.738Z,9.60
2019-03-28T23:25:29.787Z,9.60
2019-03-28T23:27:57.884Z,9.50
2019-03-28T23:30:25.939Z,9.50
2019-03-28T23:32:54.319Z,9.50
2019-03-28T23:35:22.386Z,9.50
2019-03-28T23:37:50.485Z,9.40
2019-03-28T23:40:18.642Z,9.40
2019-03-28T23:42:46.744Z,9.40
2019-03-28T23:45:14.979Z,9.40
2019-03-28T23:47:43.350Z,9.40
2019-03-28T23:50:11.513Z,9.50
2019-03-28T23:52:39.635Z,9.40
2019-03-28T23:55:08.204Z,9.40
2019-03-28T23:57:37.079Z,9.40
